sensor_id;sensor_type;location;lat;lon;timestamp;temperature;humidity
8481;DHT22;4277;51.354;6.740;2023-02-03T02:39:24;8.30;99.90
8481;DHT22;4277;51.354;6.740;2023-02-03T02:44:48;8.20;99.90
8481;DHT22;4277;51.354;6.740;2023-02-03T02:47:21;8.20;99.90
8481;DHT22;4277;51.354;6.740;2023-02-03T02:50:00;8.20;99.90
8481;DHT22;4277;51.354;6.740;2023-02-03T02:52:30;8.30;99.90
8481;DHT22;4277;51.354;6.740;2023-02-03T02:55:00;8.30;99.90
8481;DHT22;4277;51.354;6.740;2023-02-03T02:57:29;8.30;99.90
8481;DHT22;4277;51.354;6.740;2023-02-03T02:59:55;8.30;99.90
8481;DHT22;4277;51.354;6.740;2023-02-03T03:02:21;8.20;99.90
8481;DHT22;4277;51.354;6.740;2023-02-03T03:04:48;8.20;99.90
8481;DHT22;4277;51.354;6.740;2023-02-03T03:07:18;8.20;99.90
8481;DHT22;4277;51.354;6.740;2023-02-03T03:10:00;8.30;99.90
8481;DHT22;4277;51.354;6.740;2023-02-03T03:12:40;8.20;99.90
8481;DHT22;4277;51.354;6.740;2023-02-03T03:15:16;8.30;99.90
8481;DHT22;4277;51.354;6.740;2023-02-03T03:17:53;8.30;99.90
8481;DHT22;4277;51.354;6.740;2023-02-03T03:20:24;8.30;99.90
8481;DHT22;4277;51.354;6.740;2023-02-03T03:22:55;8.30;99.90
8481;DHT22;4277;51.354;6.740;2023-02-03T03:25:30;8.30;99.90
8481;DHT22;4277;51.354;6.740;2023-02-03T03:28:03;8.30;99.90
8481;DHT22;4277;51.354;6.740;2023-02-03T03:30:33;8.30;99.90
8481;DHT22;4277;51.354;6.740;2023-02-03T03:33:00;8.30;99.90
8481;DHT22;4277;51.354;6.740;2023-02-03T03:35:31;8.20;99.90
8481;DHT22;4277;51.354;6.740;2023-02-03T03:38:08;8.30;99.90
8481;DHT22;4277;51.354;6.740;2023-02-03T03:40:40;8.20;99.90
8481;DHT22;4277;51.354;6.740;2023-02-03T03:43:17;8.20;99.90
8481;DHT22;4277;51.354;6.740;2023-02-03T03:48:27;8.20;99.90
8481;DHT22;4277;51.354;6.740;2023-02-03T03:51:02;8.30;99.90
8481;DHT22;4277;51.354;6.740;2023-02-03T03:53:31;8.30;99.90
8481;DHT22;4277;51.354;6.740;2023-02-03T03:56:00;8.30;99.90
8481;DHT22;4277;51.354;6.740;2023-02-03T03:58:30;8.20;99.90
8481;DHT22;4277;51.354;6.740;2023-02-03T04:00:59;8.20;99.90
8481;DHT22;4277;51.354;6.740;2023-02-03T04:03:35;8.20;99.90
8481;DHT22;4277;51.354;6.740;2023-02-03T04:06:02;8.20;99.90
8481;DHT22;4277;51.354;6.740;2023-02-03T04:08:28;8.20;99.90
8481;DHT22;4277;51.354;6.740;2023-02-03T04:10:53;8.20;99.90
8481;DHT22;4277;51.354;6.740;2023-02-03T04:13:19;8.10;99.90
8481;DHT22;4277;51.354;6.740;2023-02-03T04:15:45;8.30;99.90
8481;DHT22;4277;51.354;6.740;2023-02-03T04:18:15;8.30;99.90
8481;DHT22;4277;51.354;6.740;2023-02-03T04:20:41;8.30;99.90
8481;DHT22;4277;51.354;6.740;2023-02-03T04:23:07;8.30;99.90
8481;DHT22;4277;51.354;6.740;2023-02-03T04:25:33;8.30;99.90
8481;DHT22;4277;51.354;6.740;2023-02-03T04:27:59;8.40;99.90
8481;DHT22;4277;51.354;6.740;2023-02-03T04:30:25;8.30;99.90
8481;DHT22;4277;51.354;6.740;2023-02-03T04:32:50;8.40;99.90
8481;DHT22;4277;51.354;6.740;2023-02-03T04:35:16;8.40;99.90
8481;DHT22;4277;51.354;6.740;2023-02-03T04:37:42;8.40;99.90
8481;DHT22;4277;51.354;6.740;2023-02-03T04:40:08;8.40;99.90
8481;DHT22;4277;51.354;6.740;2023-02-03T04:42:36;8.40;99.90
8481;DHT22;4277;51.354;6.740;2023-02-03T04:45:03;8.40;99.90
8481;DHT22;4277;51.354;6.740;2023-02-03T04:47:29;8.40;99.90
8481;DHT22;4277;51.354;6.740;2023-02-03T04:49:54;8.40;99.90
8481;DHT22;4277;51.354;6.740;2023-02-03T04:52:20;8.30;99.90
8481;DHT22;4277;51.354;6.740;2023-02-03T04:54:45;8.30;99.90
8481;DHT22;4277;51.354;6.740;2023-02-03T04:57:11;8.40;99.90
8481;DHT22;4277;51.354;6.740;2023-02-03T04:59:36;8.40;99.90
8481;DHT22;4277;51.354;6.740;2023-02-03T05:02:02;8.40;99.90
8481;DHT22;4277;51.354;6.740;2023-02-03T05:04:29;8.40;99.90
8481;DHT22;4277;51.354;6.740;2023-02-03T05:06:54;8.40;99.90
8481;DHT22;4277;51.354;6.740;2023-02-03T05:09:21;8.40;99.90
8481;DHT22;4277;51.354;6.740;2023-02-03T05:11:46;8.40;99.90
8481;DHT22;4277;51.354;6.740;2023-02-03T05:14:12;8.40;99.90
8481;DHT22;4277;51.354;6.740;2023-02-03T05:16:37;8.40;99.90
8481;DHT22;4277;51.354;6.740;2023-02-03T05:19:03;8.40;99.90
8481;DHT22;4277;51.354;6.740;2023-02-03T05:21:28;8.30;99.90
8481;DHT22;4277;51.354;6.740;2023-02-03T05:23:54;8.40;99.90
8481;DHT22;4277;51.354;6.740;2023-02-03T05:26:19;8.30;99.90
8481;DHT22;4277;51.354;6.740;2023-02-03T05:28:45;8.30;99.90
8481;DHT22;4277;51.354;6.740;2023-02-03T05:31:10;8.30;99.90
8481;DHT22;4277;51.354;6.740;2023-02-03T05:33:36;8.30;99.90
8481;DHT22;4277;51.354;6.740;2023-02-03T05:36:02;8.30;99.90
8481;DHT22;4277;51.354;6.740;2023-02-03T05:38:27;8.40;99.90
8481;DHT22;4277;51.354;6.740;2023-02-03T05:40:53;8.40;99.90
8481;DHT22;4277;51.354;6.740;2023-02-03T05:43:37;8.40;99.90
8481;DHT22;4277;51.354;6.740;2023-02-03T05:46:04;8.40;99.90
8481;DHT22;4277;51.354;6.740;2023-02-03T05:48:30;8.40;99.90
8481;DHT22;4277;51.354;6.740;2023-02-03T05:50:56;8.40;99.90
8481;DHT22;4277;51.354;6.740;2023-02-03T05:53:22;8.40;99.90
8481;DHT22;4277;51.354;6.740;2023-02-03T05:55:48;8.30;99.90
8481;DHT22;4277;51.354;6.740;2023-02-03T05:58:14;8.40;99.90
8481;DHT22;4277;51.354;6.740;2023-02-03T06:00:39;8.40;99.90
8481;DHT22;4277;51.354;6.740;2023-02-03T06:03:05;8.40;99.90
8481;DHT22;4277;51.354;6.740;2023-02-03T06:05:32;8.50;99.90
8481;DHT22;4277;51.354;6.740;2023-02-03T06:07:58;8.50;99.90
8481;DHT22;4277;51.354;6.740;2023-02-03T06:10:24;8.50;99.90
8481;DHT22;4277;51.354;6.740;2023-02-03T06:12:50;8.40;99.90
8481;DHT22;4277;51.354;6.740;2023-02-03T06:15:16;8.50;99.90
8481;DHT22;4277;51.354;6.740;2023-02-03T06:17:47;8.50;99.90
8481;DHT22;4277;51.354;6.740;2023-02-03T06:20:14;8.50;99.90
8481;DHT22;4277;51.354;6.740;2023-02-03T06:22:40;8.50;99.90
8481;DHT22;4277;51.354;6.740;2023-02-03T06:25:06;8.50;99.90
8481;DHT22;4277;51.354;6.740;2023-02-03T06:27:32;8.40;99.90
8481;DHT22;4277;51.354;6.740;2023-02-03T06:29:58;8.40;99.90
8481;DHT22;4277;51.354;6.740;2023-02-03T06:32:23;8.20;99.90
8481;DHT22;4277;51.354;6.740;2023-02-03T06:34:49;8.20;99.90
8481;DHT22;4277;51.354;6.740;2023-02-03T06:37:14;8.30;99.90
8481;DHT22;4277;51.354;6.740;2023-02-03T06:39:40;8.30;99.90
8481;DHT22;4277;51.354;6.740;2023-02-03T06:42:06;8.20;99.90
8481;DHT22;4277;51.354;6.740;2023-02-03T06:44:31;8.20;99.90
8481;DHT22;4277;51.354;6.740;2023-02-03T06:46:57;8.20;99.90
8481;DHT22;4277;51.354;6.740;2023-02-03T06:49:23;8.30;99.90
8481;DHT22;4277;51.354;6.740;2023-02-03T06:51:49;8.40;99.90
8481;DHT22;4277;51.354;6.740;2023-02-03T06:54:14;8.40;99.90
8481;DHT22;4277;51.354;6.740;2023-02-03T06:56:40;8.50;99.90
8481;DHT22;4277;51.354;6.740;2023-02-03T06:59:06;8.50;99.90
8481;DHT22;4277;51.354;6.740;2023-02-03T07:01:33;8.50;99.90
8481;DHT22;4277;51.354;6.740;2023-02-03T07:03:58;8.60;99.90
8481;DHT22;4277;51.354;6.740;2023-02-03T07:06:24;8.60;99.90
8481;DHT22;4277;51.354;6.740;2023-02-03T07:08:59;8.50;99.90
8481;DHT22;4277;51.354;6.740;2023-02-03T07:11:25;8.60;99.90
8481;DHT22;4277;51.354;6.740;2023-02-03T07:13:51;8.60;99.90
8481;DHT22;4277;51.354;6.740;2023-02-03T07:16:17;8.60;99.90
8481;DHT22;4277;51.354;6.740;2023-02-03T07:18:42;8.70;99.90
8481;DHT22;4277;51.354;6.740;2023-02-03T07:21:08;8.60;99.90
8481;DHT22;4277;51.354;6.740;2023-02-03T07:23:34;8.60;99.90
8481;DHT22;4277;51.354;6.740;2023-02-03T07:26:00;8.50;99.90
8481;DHT22;4277;51.354;6.740;2023-02-03T07:28:27;8.50;99.90
8481;DHT22;4277;51.354;6.740;2023-02-03T07:30:52;8.60;99.90
8481;DHT22;4277;51.354;6.740;2023-02-03T07:33:18;8.60;99.90
8481;DHT22;4277;51.354;6.740;2023-02-03T07:35:53;8.60;99.90
8481;DHT22;4277;51.354;6.740;2023-02-03T07:38:20;8.70;99.90
8481;DHT22;4277;51.354;6.740;2023-02-03T07:40:45;8.60;99.90
8481;DHT22;4277;51.354;6.740;2023-02-03T07:43:11;8.60;99.90
8481;DHT22;4277;51.354;6.740;2023-02-03T07:45:37;8.70;99.90
8481;DHT22;4277;51.354;6.740;2023-02-03T07:48:02;8.60;99.90
8481;DHT22;4277;51.354;6.740;2023-02-03T07:50:28;8.60;99.90
8481;DHT22;4277;51.354;6.740;2023-02-03T07:52:53;8.70;99.90
8481;DHT22;4277;51.354;6.740;2023-02-03T07:55:20;8.70;99.90
8481;DHT22;4277;51.354;6.740;2023-02-03T07:57:46;8.70;99.90
8481;DHT22;4277;51.354;6.740;2023-02-03T08:00:14;8.70;99.90
8481;DHT22;4277;51.354;6.740;2023-02-03T08:02:41;8.60;99.90
8481;DHT22;4277;51.354;6.740;2023-02-03T08:05:07;8.70;99.90
8481;DHT22;4277;51.354;6.740;2023-02-03T08:07:33;8.70;99.90
8481;DHT22;4277;51.354;6.740;2023-02-03T08:09:59;8.70;99.90
8481;DHT22;4277;51.354;6.740;2023-02-03T08:12:25;8.70;99.90
8481;DHT22;4277;51.354;6.740;2023-02-03T08:14:50;8.70;99.90
8481;DHT22;4277;51.354;6.740;2023-02-03T08:17:16;8.60;99.90
8481;DHT22;4277;51.354;6.740;2023-02-03T08:19:41;8.70;99.90
8481;DHT22;4277;51.354;6.740;2023-02-03T08:22:07;8.60;99.90
8481;DHT22;4277;51.354;6.740;2023-02-03T08:24:33;8.70;99.90
8481;DHT22;4277;51.354;6.740;2023-02-03T08:26:59;8.60;99.90
8481;DHT22;4277;51.354;6.740;2023-02-03T08:29:25;8.80;99.90
8481;DHT22;4277;51.354;6.740;2023-02-03T08:31:51;8.70;99.90
8481;DHT22;4277;51.354;6.740;2023-02-03T08:34:16;8.70;99.90
8481;DHT22;4277;51.354;6.740;2023-02-03T08:36:42;8.80;99.90
8481;DHT22;4277;51.354;6.740;2023-02-03T08:39:08;8.80;99.90
8481;DHT22;4277;51.354;6.740;2023-02-03T08:41:34;8.80;99.90
8481;DHT22;4277;51.354;6.740;2023-02-03T08:43:59;8.80;99.90
8481;DHT22;4277;51.354;6.740;2023-02-03T08:46:26;8.70;99.90
8481;DHT22;4277;51.354;6.740;2023-02-03T08:48:53;8.70;99.90
8481;DHT22;4277;51.354;6.740;2023-02-03T08:51:20;8.70;99.90
8481;DHT22;4277;51.354;6.740;2023-02-03T08:53:46;8.70;99.90
8481;DHT22;4277;51.354;6.740;2023-02-03T08:56:12;8.60;99.90
8481;DHT22;4277;51.354;6.740;2023-02-03T08:58:38;8.70;99.90
8481;DHT22;4277;51.354;6.740;2023-02-03T09:01:13;8.60;99.90
8481;DHT22;4277;51.354;6.740;2023-02-03T09:03:39;8.70;99.90
8481;DHT22;4277;51.354;6.740;2023-02-03T09:06:06;8.70;99.90
8481;DHT22;4277;51.354;6.740;2023-02-03T09:08:32;8.60;99.90
8481;DHT22;4277;51.354;6.740;2023-02-03T09:10:57;8.60;99.90
8481;DHT22;4277;51.354;6.740;2023-02-03T09:13:23;8.60;99.90
8481;DHT22;4277;51.354;6.740;2023-02-03T09:15:49;8.60;99.90
8481;DHT22;4277;51.354;6.740;2023-02-03T09:18:14;8.60;99.90
8481;DHT22;4277;51.354;6.740;2023-02-03T09:20:40;8.60;99.90
8481;DHT22;4277;51.354;6.740;2023-02-03T09:23:06;8.60;99.90
8481;DHT22;4277;51.354;6.740;2023-02-03T09:25:32;8.50;99.90
8481;DHT22;4277;51.354;6.740;2023-02-03T09:28:00;8.60;99.90
8481;DHT22;4277;51.354;6.740;2023-02-03T09:30:26;8.60;99.90
8481;DHT22;4277;51.354;6.740;2023-02-03T09:32:52;8.60;99.90
8481;DHT22;4277;51.354;6.740;2023-02-03T09:35:19;8.60;99.90
8481;DHT22;4277;51.354;6.740;2023-02-03T09:37:45;8.60;99.90
8481;DHT22;4277;51.354;6.740;2023-02-03T09:40:21;8.50;99.90
8481;DHT22;4277;51.354;6.740;2023-02-03T09:42:54;8.50;99.90
8481;DHT22;4277;51.354;6.740;2023-02-03T09:45:26;8.50;99.90
8481;DHT22;4277;51.354;6.740;2023-02-03T09:47:53;8.50;99.90
8481;DHT22;4277;51.354;6.740;2023-02-03T09:50:24;8.50;99.90
8481;DHT22;4277;51.354;6.740;2023-02-03T09:52:51;8.50;99.90
8481;DHT22;4277;51.354;6.740;2023-02-03T09:55:42;8.50;99.90
8481;DHT22;4277;51.354;6.740;2023-02-03T09:58:11;8.50;99.90
8481;DHT22;4277;51.354;6.740;2023-02-03T10:01:05;8.50;99.90
8481;DHT22;4277;51.354;6.740;2023-02-03T10:03:46;8.50;99.90
8481;DHT22;4277;51.354;6.740;2023-02-03T10:06:37;8.60;99.90
8481;DHT22;4277;51.354;6.740;2023-02-03T10:12:08;8.60;99.90
8481;DHT22;4277;51.354;6.740;2023-02-03T10:17:36;8.60;99.90
8481;DHT22;4277;51.354;6.740;2023-02-03T10:22:39;8.60;99.90
8481;DHT22;4277;51.354;6.740;2023-02-03T10:27:45;8.60;99.90
8481;DHT22;4277;51.354;6.740;2023-02-03T10:32:43;8.60;99.90
8481;DHT22;4277;51.354;6.740;2023-02-03T10:35:13;8.60;99.90
8481;DHT22;4277;51.354;6.740;2023-02-03T10:37:48;8.70;99.90
8481;DHT22;4277;51.354;6.740;2023-02-03T10:40:15;8.70;99.90
8481;DHT22;4277;51.354;6.740;2023-02-03T10:42:43;8.70;99.90
8481;DHT22;4277;51.354;6.740;2023-02-03T10:45:35;8.70;99.90
8481;DHT22;4277;51.354;6.740;2023-02-03T10:48:02;8.70;99.90
8481;DHT22;4277;51.354;6.740;2023-02-03T10:50:28;8.70;99.90
8481;DHT22;4277;51.354;6.740;2023-02-03T10:55:42;8.80;99.90
8481;DHT22;4277;51.354;6.740;2023-02-03T10:58:15;8.80;99.90
8481;DHT22;4277;51.354;6.740;2023-02-03T11:00:41;8.80;99.90
8481;DHT22;4277;51.354;6.740;2023-02-03T11:03:15;8.80;99.90
8481;DHT22;4277;51.354;6.740;2023-02-03T11:05:41;8.80;99.90
8481;DHT22;4277;51.354;6.740;2023-02-03T11:08:14;8.90;99.90
8481;DHT22;4277;51.354;6.740;2023-02-03T11:10:40;8.90;99.90
8481;DHT22;4277;51.354;6.740;2023-02-03T11:13:14;8.90;99.90
8481;DHT22;4277;51.354;6.740;2023-02-03T11:16:05;8.90;99.90
8481;DHT22;4277;51.354;6.740;2023-02-03T11:18:45;9.00;99.90
8481;DHT22;4277;51.354;6.740;2023-02-03T11:21:15;9.00;99.90
8481;DHT22;4277;51.354;6.740;2023-02-03T11:23:45;9.00;99.90
8481;DHT22;4277;51.354;6.740;2023-02-03T11:26:12;9.00;99.90
8481;DHT22;4277;51.354;6.740;2023-02-03T11:28:44;9.00;99.90
8481;DHT22;4277;51.354;6.740;2023-02-03T11:31:22;9.10;99.90
8481;DHT22;4277;51.354;6.740;2023-02-03T11:34:15;9.00;99.90
8481;DHT22;4277;51.354;6.740;2023-02-03T11:36:41;9.10;99.90
8481;DHT22;4277;51.354;6.740;2023-02-03T11:41:37;9.20;99.90
8481;DHT22;4277;51.354;6.740;2023-02-03T11:44:10;9.30;99.90
8481;DHT22;4277;51.354;6.740;2023-02-03T11:46:37;9.40;99.90
8481;DHT22;4277;51.354;6.740;2023-02-03T11:49:53;9.40;99.90
8481;DHT22;4277;51.354;6.740;2023-02-03T11:52:14;9.40;99.90
8481;DHT22;4277;51.354;6.740;2023-02-03T11:55:05;9.50;99.90
8481;DHT22;4277;51.354;6.740;2023-02-03T11:57:38;9.40;99.90
8481;DHT22;4277;51.354;6.740;2023-02-03T12:00:29;9.50;99.90
8481;DHT22;4277;51.354;6.740;2023-02-03T12:14:29;9.50;99.90
8481;DHT22;4277;51.354;6.740;2023-02-03T12:26:03;9.60;99.90
8481;DHT22;4277;51.354;6.740;2023-02-03T12:36:46;9.70;99.90
8481;DHT22;4277;51.354;6.740;2023-02-03T12:39:24;9.70;99.90
8481;DHT22;4277;51.354;6.740;2023-02-03T12:42:04;9.80;99.90
8481;DHT22;4277;51.354;6.740;2023-02-03T12:44:42;9.70;99.90
8481;DHT22;4277;51.354;6.740;2023-02-03T12:50:02;9.70;99.90
8481;DHT22;4277;51.354;6.740;2023-02-03T12:52:37;9.70;99.90
